sensor_id;sensor_type;location;lat;lon;timestamp;P1;durP1;ratioP1;P2;durP2;ratioP2
51686;SDS011;37774;52.192;4.584;2022-10-22T00:01:54;11.25;;;2.58;;
51686;SDS011;37774;52.192;4.584;2022-10-22T00:04:22;7.40;;;3.40;;
51686;SDS011;37774;52.192;4.584;2022-10-22T00:06:49;11.02;;;3.42;;
51686;SDS011;37774;52.192;4.584;2022-10-22T00:09:16;12.32;;;3.22;;
51686;SDS011;37774;52.192;4.584;2022-10-22T00:11:42;13.98;;;3.30;;
51686;SDS011;37774;52.192;4.584;2022-10-22T00:14:09;9.68;;;4.07;;
51686;SDS011;37774;52.192;4.584;2022-10-22T00:16:35;7.00;;;3.00;;
51686;SDS011;37774;52.192;4.584;2022-10-22T00:19:03;13.75;;;2.90;;
51686;SDS011;37774;52.192;4.584;2022-10-22T00:21:31;8.18;;;3.45;;
51686;SDS011;37774;52.192;4.584;2022-10-22T00:23:58;8.00;;;3.60;;
51686;SDS011;37774;52.192;4.584;2022-10-22T00:26:24;8.90;;;3.45;;
51686;SDS011;37774;52.192;4.584;2022-10-22T00:28:51;11.35;;;3.45;;
51686;SDS011;37774;52.192;4.584;2022-10-22T00:31:18;12.27;;;3.25;;
51686;SDS011;37774;52.192;4.584;2022-10-22T00:33:45;6.78;;;2.53;;
51686;SDS011;37774;52.192;4.584;2022-10-22T00:36:12;8.50;;;3.40;;
51686;SDS011;37774;52.192;4.584;2022-10-22T00:38:40;11.90;;;3.67;;
51686;SDS011;37774;52.192;4.584;2022-10-22T00:41:07;17.48;;;3.58;;
51686;SDS011;37774;52.192;4.584;2022-10-22T00:46:15;8.43;;;3.50;;
51686;SDS011;37774;52.192;4.584;2022-10-22T00:48:42;7.53;;;3.85;;
51686;SDS011;37774;52.192;4.584;2022-10-22T00:51:09;10.63;;;3.15;;
51686;SDS011;37774;52.192;4.584;2022-10-22T00:53:36;5.50;;;3.17;;
51686;SDS011;37774;52.192;4.584;2022-10-22T00:56:05;13.60;;;3.15;;
51686;SDS011;37774;52.192;4.584;2022-10-22T00:58:32;5.65;;;2.75;;
51686;SDS011;37774;52.192;4.584;2022-10-22T01:01:00;12.15;;;3.55;;
51686;SDS011;37774;52.192;4.584;2022-10-22T01:03:27;15.73;;;3.85;;
51686;SDS011;37774;52.192;4.584;2022-10-22T01:05:55;9.40;;;3.30;;
51686;SDS011;37774;52.192;4.584;2022-10-22T01:08:26;8.85;;;3.53;;
51686;SDS011;37774;52.192;4.584;2022-10-22T01:10:58;7.43;;;3.05;;
51686;SDS011;37774;52.192;4.584;2022-10-22T01:13:30;8.73;;;3.40;;
51686;SDS011;37774;52.192;4.584;2022-10-22T01:15:59;14.65;;;2.90;;
51686;SDS011;37774;52.192;4.584;2022-10-22T01:18:29;14.73;;;3.42;;
51686;SDS011;37774;52.192;4.584;2022-10-22T01:20:59;7.85;;;2.78;;
51686;SDS011;37774;52.192;4.584;2022-10-22T01:23:38;13.45;;;3.28;;
51686;SDS011;37774;52.192;4.584;2022-10-22T01:26:12;12.38;;;3.20;;
51686;SDS011;37774;52.192;4.584;2022-10-22T01:28:48;13.70;;;3.70;;
51686;SDS011;37774;52.192;4.584;2022-10-22T01:31:16;8.53;;;3.03;;
51686;SDS011;37774;52.192;4.584;2022-10-22T01:33:44;14.80;;;3.00;;
51686;SDS011;37774;52.192;4.584;2022-10-22T01:36:11;11.13;;;3.20;;
51686;SDS011;37774;52.192;4.584;2022-10-22T01:38:38;6.40;;;2.88;;
51686;SDS011;37774;52.192;4.584;2022-10-22T01:41:06;18.25;;;3.00;;
51686;SDS011;37774;52.192;4.584;2022-10-22T01:43:33;5.30;;;2.55;;
51686;SDS011;37774;52.192;4.584;2022-10-22T01:46:02;10.18;;;3.70;;
51686;SDS011;37774;52.192;4.584;2022-10-22T01:48:33;12.35;;;3.45;;
51686;SDS011;37774;52.192;4.584;2022-10-22T01:51:07;10.90;;;2.60;;
51686;SDS011;37774;52.192;4.584;2022-10-22T01:53:40;11.20;;;2.65;;
51686;SDS011;37774;52.192;4.584;2022-10-22T01:56:14;18.73;;;3.63;;
51686;SDS011;37774;52.192;4.584;2022-10-22T01:58:44;9.65;;;3.15;;
51686;SDS011;37774;52.192;4.584;2022-10-22T02:01:16;11.15;;;3.30;;
51686;SDS011;37774;52.192;4.584;2022-10-22T02:03:45;12.30;;;2.83;;
51686;SDS011;37774;52.192;4.584;2022-10-22T02:06:14;15.23;;;2.42;;
51686;SDS011;37774;52.192;4.584;2022-10-22T02:08:42;14.38;;;3.85;;
51686;SDS011;37774;52.192;4.584;2022-10-22T02:11:10;8.52;;;2.70;;
51686;SDS011;37774;52.192;4.584;2022-10-22T02:13:39;18.73;;;4.47;;
51686;SDS011;37774;52.192;4.584;2022-10-22T02:16:07;10.15;;;2.80;;
51686;SDS011;37774;52.192;4.584;2022-10-22T02:18:36;11.68;;;3.92;;
51686;SDS011;37774;52.192;4.584;2022-10-22T02:21:05;12.77;;;2.88;;
51686;SDS011;37774;52.192;4.584;2022-10-22T02:23:32;11.07;;;3.00;;
51686;SDS011;37774;52.192;4.584;2022-10-22T02:26:01;16.75;;;2.47;;
51686;SDS011;37774;52.192;4.584;2022-10-22T02:28:31;6.82;;;3.17;;
51686;SDS011;37774;52.192;4.584;2022-10-22T02:30:59;7.78;;;2.78;;
51686;SDS011;37774;52.192;4.584;2022-10-22T02:33:28;7.68;;;2.85;;
51686;SDS011;37774;52.192;4.584;2022-10-22T02:36:00;11.73;;;3.28;;
51686;SDS011;37774;52.192;4.584;2022-10-22T02:38:28;15.98;;;2.67;;
51686;SDS011;37774;52.192;4.584;2022-10-22T02:40:55;18.67;;;3.63;;
51686;SDS011;37774;52.192;4.584;2022-10-22T02:43:23;19.02;;;3.70;;
51686;SDS011;37774;52.192;4.584;2022-10-22T02:45:49;7.72;;;2.88;;
51686;SDS011;37774;52.192;4.584;2022-10-22T02:48:16;19.63;;;3.55;;
51686;SDS011;37774;52.192;4.584;2022-10-22T02:50:43;11.15;;;3.28;;
51686;SDS011;37774;52.192;4.584;2022-10-22T02:53:10;8.55;;;2.80;;
51686;SDS011;37774;52.192;4.584;2022-10-22T02:55:37;8.27;;;2.65;;
51686;SDS011;37774;52.192;4.584;2022-10-22T02:58:04;12.20;;;2.53;;
51686;SDS011;37774;52.192;4.584;2022-10-22T03:00:30;7.97;;;3.03;;
51686;SDS011;37774;52.192;4.584;2022-10-22T03:02:57;10.65;;;2.80;;
51686;SDS011;37774;52.192;4.584;2022-10-22T03:05:23;11.30;;;3.10;;
51686;SDS011;37774;52.192;4.584;2022-10-22T03:07:50;14.00;;;2.50;;
51686;SDS011;37774;52.192;4.584;2022-10-22T03:10:20;8.13;;;2.42;;
51686;SDS011;37774;52.192;4.584;2022-10-22T03:12:46;13.38;;;2.97;;
51686;SDS011;37774;52.192;4.584;2022-10-22T03:15:13;8.02;;;2.35;;
51686;SDS011;37774;52.192;4.584;2022-10-22T03:17:40;16.67;;;2.60;;
51686;SDS011;37774;52.192;4.584;2022-10-22T03:20:07;13.25;;;2.08;;
51686;SDS011;37774;52.192;4.584;2022-10-22T03:22:35;6.30;;;2.40;;
51686;SDS011;37774;52.192;4.584;2022-10-22T03:25:04;12.63;;;3.15;;
51686;SDS011;37774;52.192;4.584;2022-10-22T03:27:34;19.17;;;2.60;;
51686;SDS011;37774;52.192;4.584;2022-10-22T03:30:02;17.30;;;3.13;;
51686;SDS011;37774;52.192;4.584;2022-10-22T03:32:29;16.75;;;2.90;;
51686;SDS011;37774;52.192;4.584;2022-10-22T03:34:55;11.38;;;2.70;;
51686;SDS011;37774;52.192;4.584;2022-10-22T03:37:22;7.05;;;2.33;;
51686;SDS011;37774;52.192;4.584;2022-10-22T03:39:52;5.90;;;3.33;;
51686;SDS011;37774;52.192;4.584;2022-10-22T03:42:19;12.10;;;2.63;;
51686;SDS011;37774;52.192;4.584;2022-10-22T03:44:47;14.45;;;2.88;;
51686;SDS011;37774;52.192;4.584;2022-10-22T03:47:15;7.50;;;2.65;;
51686;SDS011;37774;52.192;4.584;2022-10-22T03:49:42;11.05;;;2.67;;
51686;SDS011;37774;52.192;4.584;2022-10-22T03:52:09;13.82;;;2.40;;
51686;SDS011;37774;52.192;4.584;2022-10-22T03:54:36;10.70;;;2.55;;
51686;SDS011;37774;52.192;4.584;2022-10-22T03:57:03;15.18;;;2.67;;
51686;SDS011;37774;52.192;4.584;2022-10-22T03:59:34;17.08;;;2.65;;
51686;SDS011;37774;52.192;4.584;2022-10-22T04:02:02;9.10;;;2.35;;
51686;SDS011;37774;52.192;4.584;2022-10-22T04:04:29;7.15;;;2.33;;
51686;SDS011;37774;52.192;4.584;2022-10-22T04:06:55;11.50;;;2.45;;
51686;SDS011;37774;52.192;4.584;2022-10-22T04:09:22;12.95;;;2.83;;
51686;SDS011;37774;52.192;4.584;2022-10-22T04:11:48;12.23;;;2.83;;
51686;SDS011;37774;52.192;4.584;2022-10-22T04:14:15;6.82;;;2.47;;
51686;SDS011;37774;52.192;4.584;2022-10-22T04:16:42;12.07;;;2.53;;
51686;SDS011;37774;52.192;4.584;2022-10-22T04:19:10;9.90;;;1.98;;
51686;SDS011;37774;52.192;4.584;2022-10-22T04:21:36;13.27;;;2.65;;
51686;SDS011;37774;52.192;4.584;2022-10-22T04:24:04;12.43;;;2.58;;
51686;SDS011;37774;52.192;4.584;2022-10-22T04:26:31;19.35;;;2.72;;
51686;SDS011;37774;52.192;4.584;2022-10-22T04:28:58;10.20;;;2.28;;
51686;SDS011;37774;52.192;4.584;2022-10-22T04:31:25;9.20;;;2.60;;
51686;SDS011;37774;52.192;4.584;2022-10-22T04:33:52;12.45;;;2.33;;
51686;SDS011;37774;52.192;4.584;2022-10-22T04:36:20;11.68;;;2.58;;
51686;SDS011;37774;52.192;4.584;2022-10-22T04:38:50;10.55;;;2.63;;
51686;SDS011;37774;52.192;4.584;2022-10-22T04:41:18;17.40;;;2.72;;
51686;SDS011;37774;52.192;4.584;2022-10-22T04:43:45;7.47;;;2.17;;
51686;SDS011;37774;52.192;4.584;2022-10-22T04:46:29;8.13;;;1.92;;
51686;SDS011;37774;52.192;4.584;2022-10-22T04:48:55;11.15;;;2.03;;
51686;SDS011;37774;52.192;4.584;2022-10-22T04:51:24;12.77;;;2.20;;
51686;SDS011;37774;52.192;4.584;2022-10-22T04:53:51;9.32;;;2.25;;
51686;SDS011;37774;52.192;4.584;2022-10-22T04:56:19;14.30;;;2.22;;
51686;SDS011;37774;52.192;4.584;2022-10-22T04:58:47;9.05;;;2.25;;
51686;SDS011;37774;52.192;4.584;2022-10-22T05:01:15;13.48;;;2.28;;
51686;SDS011;37774;52.192;4.584;2022-10-22T05:03:42;10.65;;;2.28;;
51686;SDS011;37774;52.192;4.584;2022-10-22T05:06:11;10.98;;;2.00;;
51686;SDS011;37774;52.192;4.584;2022-10-22T05:08:39;9.02;;;2.45;;
51686;SDS011;37774;52.192;4.584;2022-10-22T05:11:11;3.83;;;1.98;;
51686;SDS011;37774;52.192;4.584;2022-10-22T05:13:38;13.68;;;2.33;;
51686;SDS011;37774;52.192;4.584;2022-10-22T05:16:07;6.35;;;2.20;;
51686;SDS011;37774;52.192;4.584;2022-10-22T05:18:34;11.57;;;2.08;;
51686;SDS011;37774;52.192;4.584;2022-10-22T05:21:01;19.95;;;2.95;;
51686;SDS011;37774;52.192;4.584;2022-10-22T05:23:30;17.60;;;2.53;;
51686;SDS011;37774;52.192;4.584;2022-10-22T05:26:00;18.63;;;2.50;;
51686;SDS011;37774;52.192;4.584;2022-10-22T05:28:27;5.50;;;1.80;;
51686;SDS011;37774;52.192;4.584;2022-10-22T05:30:53;8.85;;;2.40;;
51686;SDS011;37774;52.192;4.584;2022-10-22T05:33:20;13.75;;;2.17;;
51686;SDS011;37774;52.192;4.584;2022-10-22T05:35:47;17.15;;;2.42;;
51686;SDS011;37774;52.192;4.584;2022-10-22T05:38:14;10.13;;;2.50;;
51686;SDS011;37774;52.192;4.584;2022-10-22T05:40:40;10.02;;;1.92;;
51686;SDS011;37774;52.192;4.584;2022-10-22T05:43:09;4.47;;;1.60;;
51686;SDS011;37774;52.192;4.584;2022-10-22T05:45:35;6.18;;;2.30;;
51686;SDS011;37774;52.192;4.584;2022-10-22T05:48:02;14.30;;;2.53;;
51686;SDS011;37774;52.192;4.584;2022-10-22T05:50:29;20.70;;;2.03;;
51686;SDS011;37774;52.192;4.584;2022-10-22T05:52:55;15.90;;;2.28;;
51686;SDS011;37774;52.192;4.584;2022-10-22T05:55:22;15.52;;;3.28;;
51686;SDS011;37774;52.192;4.584;2022-10-22T05:57:49;3.72;;;2.10;;
51686;SDS011;37774;52.192;4.584;2022-10-22T06:00:17;15.02;;;2.45;;
51686;SDS011;37774;52.192;4.584;2022-10-22T06:02:47;10.38;;;2.63;;
51686;SDS011;37774;52.192;4.584;2022-10-22T06:05:14;11.75;;;2.25;;
51686;SDS011;37774;52.192;4.584;2022-10-22T06:07:41;12.25;;;2.10;;
51686;SDS011;37774;52.192;4.584;2022-10-22T06:10:08;10.25;;;2.33;;
51686;SDS011;37774;52.192;4.584;2022-10-22T06:12:36;16.80;;;2.10;;
51686;SDS011;37774;52.192;4.584;2022-10-22T06:15:03;14.05;;;2.17;;
51686;SDS011;37774;52.192;4.584;2022-10-22T06:17:32;17.90;;;2.28;;
51686;SDS011;37774;52.192;4.584;2022-10-22T06:19:59;6.95;;;2.22;;
51686;SDS011;37774;52.192;4.584;2022-10-22T06:22:25;8.77;;;2.03;;
51686;SDS011;37774;52.192;4.584;2022-10-22T06:24:52;7.82;;;1.88;;
51686;SDS011;37774;52.192;4.584;2022-10-22T06:27:18;4.68;;;1.80;;
51686;SDS011;37774;52.192;4.584;2022-10-22T06:29:46;19.20;;;2.58;;
51686;SDS011;37774;52.192;4.584;2022-10-22T06:32:13;12.75;;;2.60;;
51686;SDS011;37774;52.192;4.584;2022-10-22T06:34:42;11.05;;;2.25;;
51686;SDS011;37774;52.192;4.584;2022-10-22T06:37:10;7.20;;;2.28;;
51686;SDS011;37774;52.192;4.584;2022-10-22T06:39:38;15.38;;;1.85;;
51686;SDS011;37774;52.192;4.584;2022-10-22T06:42:04;10.10;;;2.20;;
51686;SDS011;37774;52.192;4.584;2022-10-22T06:44:31;12.50;;;2.13;;
51686;SDS011;37774;52.192;4.584;2022-10-22T06:46:57;14.55;;;2.55;;
51686;SDS011;37774;52.192;4.584;2022-10-22T06:49:24;7.18;;;1.58;;
51686;SDS011;37774;52.192;4.584;2022-10-22T06:51:52;18.08;;;2.50;;
51686;SDS011;37774;52.192;4.584;2022-10-22T06:54:19;21.20;;;2.58;;
51686;SDS011;37774;52.192;4.584;2022-10-22T06:56:46;8.55;;;1.85;;
51686;SDS011;37774;52.192;4.584;2022-10-22T06:59:12;16.30;;;2.90;;
51686;SDS011;37774;52.192;4.584;2022-10-22T07:01:39;10.25;;;2.08;;
51686;SDS011;37774;52.192;4.584;2022-10-22T07:04:06;16.70;;;2.13;;
51686;SDS011;37774;52.192;4.584;2022-10-22T07:06:34;7.55;;;1.92;;
51686;SDS011;37774;52.192;4.584;2022-10-22T07:09:04;7.35;;;1.88;;
51686;SDS011;37774;52.192;4.584;2022-10-22T07:11:35;14.98;;;2.90;;
51686;SDS011;37774;52.192;4.584;2022-10-22T07:14:03;6.45;;;1.75;;
51686;SDS011;37774;52.192;4.584;2022-10-22T07:16:30;8.15;;;1.85;;
51686;SDS011;37774;52.192;4.584;2022-10-22T07:18:56;13.05;;;2.17;;
51686;SDS011;37774;52.192;4.584;2022-10-22T07:21:23;9.63;;;2.20;;
51686;SDS011;37774;52.192;4.584;2022-10-22T07:23:50;13.52;;;1.88;;
51686;SDS011;37774;52.192;4.584;2022-10-22T07:26:18;12.07;;;2.08;;
51686;SDS011;37774;52.192;4.584;2022-10-22T07:28:45;22.88;;;1.90;;
51686;SDS011;37774;52.192;4.584;2022-10-22T07:31:15;7.88;;;1.80;;
51686;SDS011;37774;52.192;4.584;2022-10-22T07:33:42;10.75;;;1.40;;
51686;SDS011;37774;52.192;4.584;2022-10-22T07:36:09;13.57;;;2.20;;
51686;SDS011;37774;52.192;4.584;2022-10-22T07:38:36;21.73;;;1.95;;
51686;SDS011;37774;52.192;4.584;2022-10-22T07:41:03;11.13;;;2.25;;
51686;SDS011;37774;52.192;4.584;2022-10-22T07:43:31;8.95;;;1.75;;
51686;SDS011;37774;52.192;4.584;2022-10-22T07:45:58;7.38;;;1.40;;
51686;SDS011;37774;52.192;4.584;2022-10-22T07:48:26;6.75;;;1.77;;
51686;SDS011;37774;52.192;4.584;2022-10-22T07:50:53;13.95;;;1.70;;
51686;SDS011;37774;52.192;4.584;2022-10-22T07:53:21;6.90;;;1.70;;
51686;SDS011;37774;52.192;4.584;2022-10-22T07:55:48;15.65;;;2.30;;
51686;SDS011;37774;52.192;4.584;2022-10-22T07:58:15;8.25;;;1.77;;
51686;SDS011;37774;52.192;4.584;2022-10-22T08:00:43;4.32;;;1.60;;
51686;SDS011;37774;52.192;4.584;2022-10-22T08:03:10;13.65;;;2.38;;
51686;SDS011;37774;52.192;4.584;2022-10-22T08:05:38;11.63;;;2.05;;
51686;SDS011;37774;52.192;4.584;2022-10-22T08:08:05;11.40;;;1.75;;
51686;SDS011;37774;52.192;4.584;2022-10-22T08:10:31;14.20;;;2.30;;
51686;SDS011;37774;52.192;4.584;2022-10-22T08:12:59;9.85;;;1.80;;
51686;SDS011;37774;52.192;4.584;2022-10-22T08:15:25;18.17;;;2.88;;
51686;SDS011;37774;52.192;4.584;2022-10-22T08:17:55;7.72;;;1.70;;
51686;SDS011;37774;52.192;4.584;2022-10-22T08:20:21;11.18;;;1.63;;
51686;SDS011;37774;52.192;4.584;2022-10-22T08:22:48;10.20;;;2.22;;
51686;SDS011;37774;52.192;4.584;2022-10-22T08:25:15;11.45;;;2.08;;
51686;SDS011;37774;52.192;4.584;2022-10-22T08:27:42;7.07;;;1.73;;
51686;SDS011;37774;52.192;4.584;2022-10-22T08:30:09;8.23;;;2.65;;
51686;SDS011;37774;52.192;4.584;2022-10-22T08:32:36;8.73;;;2.50;;
51686;SDS011;37774;52.192;4.584;2022-10-22T08:35:04;5.45;;;1.88;;
51686;SDS011;37774;52.192;4.584;2022-10-22T08:37:31;5.70;;;1.75;;
51686;SDS011;37774;52.192;4.584;2022-10-22T08:39:57;10.27;;;1.52;;
51686;SDS011;37774;52.192;4.584;2022-10-22T08:42:29;11.98;;;2.30;;
51686;SDS011;37774;52.192;4.584;2022-10-22T08:45:02;5.80;;;1.70;;
51686;SDS011;37774;52.192;4.584;2022-10-22T08:47:40;13.93;;;1.70;;
51686;SDS011;37774;52.192;4.584;2022-10-22T08:52:38;14.80;;;2.38;;
51686;SDS011;37774;52.192;4.584;2022-10-22T08:55:07;4.32;;;1.65;;
51686;SDS011;37774;52.192;4.584;2022-10-22T08:57:40;6.05;;;1.45;;
51686;SDS011;37774;52.192;4.584;2022-10-22T09:00:10;10.73;;;1.80;;
51686;SDS011;37774;52.192;4.584;2022-10-22T09:02:39;3.33;;;1.23;;
51686;SDS011;37774;52.192;4.584;2022-10-22T09:05:22;12.00;;;2.20;;
51686;SDS011;37774;52.192;4.584;2022-10-22T09:07:53;8.43;;;1.38;;
51686;SDS011;37774;52.192;4.584;2022-10-22T09:10:23;8.93;;;1.67;;
51686;SDS011;37774;52.192;4.584;2022-10-22T09:12:51;12.52;;;1.90;;
51686;SDS011;37774;52.192;4.584;2022-10-22T09:15:18;8.55;;;1.38;;
51686;SDS011;37774;52.192;4.584;2022-10-22T09:17:49;4.50;;;1.10;;
51686;SDS011;37774;52.192;4.584;2022-10-22T09:20:19;8.70;;;1.48;;
51686;SDS011;37774;52.192;4.584;2022-10-22T09:22:51;12.32;;;1.33;;
51686;SDS011;37774;52.192;4.584;2022-10-22T09:25:22;7.18;;;1.45;;
51686;SDS011;37774;52.192;4.584;2022-10-22T09:27:50;17.98;;;1.80;;
51686;SDS011;37774;52.192;4.584;2022-10-22T09:30:23;15.52;;;1.60;;
51686;SDS011;37774;52.192;4.584;2022-10-22T09:32:49;5.40;;;1.17;;
51686;SDS011;37774;52.192;4.584;2022-10-22T09:35:20;12.43;;;1.60;;
51686;SDS011;37774;52.192;4.584;2022-10-22T09:37:47;6.35;;;1.75;;
51686;SDS011;37774;52.192;4.584;2022-10-22T09:40:16;8.80;;;1.98;;
51686;SDS011;37774;52.192;4.584;2022-10-22T09:42:45;13.95;;;1.73;;
51686;SDS011;37774;52.192;4.584;2022-10-22T09:45:16;14.82;;;1.77;;
51686;SDS011;37774;52.192;4.584;2022-10-22T09:47:43;8.68;;;1.55;;
51686;SDS011;37774;52.192;4.584;2022-10-22T09:50:18;10.77;;;2.03;;
51686;SDS011;37774;52.192;4.584;2022-10-22T09:52:49;2.65;;;1.15;;
51686;SDS011;37774;52.192;4.584;2022-10-22T09:55:21;4.28;;;1.15;;
51686;SDS011;37774;52.192;4.584;2022-10-22T09:58:00;7.55;;;1.83;;
51686;SDS011;37774;52.192;4.584;2022-10-22T10:00:26;14.68;;;1.77;;
51686;SDS011;37774;52.192;4.584;2022-10-22T10:02:54;7.45;;;1.70;;
51686;SDS011;37774;52.192;4.584;2022-10-22T10:05:25;7.45;;;1.42;;
51686;SDS011;37774;52.192;4.584;2022-10-22T10:07:52;9.55;;;1.63;;
51686;SDS011;37774;52.192;4.584;2022-10-22T10:10:20;9.77;;;1.52;;
51686;SDS011;37774;52.192;4.584;2022-10-22T10:12:56;10.85;;;0.98;;
51686;SDS011;37774;52.192;4.584;2022-10-22T10:15:26;4.82;;;1.05;;
51686;SDS011;37774;52.192;4.584;2022-10-22T10:17:56;8.73;;;2.00;;
51686;SDS011;37774;52.192;4.584;2022-10-22T10:20:29;11.23;;;1.48;;
51686;SDS011;37774;52.192;4.584;2022-10-22T10:23:02;13.50;;;1.45;;
51686;SDS011;37774;52.192;4.584;2022-10-22T10:25:38;15.75;;;1.33;;
51686;SDS011;37774;52.192;4.584;2022-10-22T10:28:13;5.75;;;1.08;;
51686;SDS011;37774;52.192;4.584;2022-10-22T10:30:43;6.70;;;1.08;;
51686;SDS011;37774;52.192;4.584;2022-10-22T10:33:15;7.43;;;0.73;;
51686;SDS011;37774;52.192;4.584;2022-10-22T10:35:45;3.95;;;1.00;;
51686;SDS011;37774;52.192;4.584;2022-10-22T10:38:20;9.90;;;1.10;;
51686;SDS011;37774;52.192;4.584;2022-10-22T10:40:51;9.32;;;1.45;;
51686;SDS011;37774;52.192;4.584;2022-10-22T10:43:24;13.18;;;1.05;;
51686;SDS011;37774;52.192;4.584;2022-10-22T10:45:56;8.32;;;1.48;;
51686;SDS011;37774;52.192;4.584;2022-10-22T10:48:36;4.22;;;1.35;;
51686;SDS011;37774;52.192;4.584;2022-10-22T10:51:06;10.93;;;1.08;;
51686;SDS011;37774;52.192;4.584;2022-10-22T10:53:40;5.78;;;0.90;;
51686;SDS011;37774;52.192;4.584;2022-10-22T10:56:13;16.67;;;2.10;;
51686;SDS011;37774;52.192;4.584;2022-10-22T10:58:47;13.27;;;1.73;;
51686;SDS011;37774;52.192;4.584;2022-10-22T11:01:18;9.90;;;1.48;;
51686;SDS011;37774;52.192;4.584;2022-10-22T11:03:55;5.32;;;1.20;;
51686;SDS011;37774;52.192;4.584;2022-10-22T11:06:25;14.82;;;3.30;;
51686;SDS011;37774;52.192;4.584;2022-10-22T11:08:53;19.70;;;2.38;;
51686;SDS011;37774;52.192;4.584;2022-10-22T11:11:24;20.38;;;1.83;;
51686;SDS011;37774;52.192;4.584;2022-10-22T11:13:56;11.68;;;1.77;;
51686;SDS011;37774;52.192;4.584;2022-10-22T11:16:30;10.02;;;1.67;;
51686;SDS011;37774;52.192;4.584;2022-10-22T11:18:59;7.88;;;1.52;;
51686;SDS011;37774;52.192;4.584;2022-10-22T11:21:30;12.23;;;2.05;;
51686;SDS011;37774;52.192;4.584;2022-10-22T11:24:00;11.40;;;1.80;;
51686;SDS011;37774;52.192;4.584;2022-10-22T11:26:33;6.50;;;1.48;;
51686;SDS011;37774;52.192;4.584;2022-10-22T11:29:03;11.13;;;1.92;;
51686;SDS011;37774;52.192;4.584;2022-10-22T11:31:30;10.82;;;1.60;;
51686;SDS011;37774;52.192;4.584;2022-10-22T11:34:03;15.38;;;1.65;;
51686;SDS011;37774;52.192;4.584;2022-10-22T11:36:32;9.93;;;1.75;;
51686;SDS011;37774;52.192;4.584;2022-10-22T11:38:59;17.98;;;1.67;;
51686;SDS011;37774;52.192;4.584;2022-10-22T11:41:27;14.75;;;1.65;;
51686;SDS011;37774;52.192;4.584;2022-10-22T11:43:56;13.70;;;1.90;;
51686;SDS011;37774;52.192;4.584;2022-10-22T11:46:37;22.42;;;2.05;;
51686;SDS011;37774;52.192;4.584;2022-10-22T11:49:13;18.88;;;1.75;;
51686;SDS011;37774;52.192;4.584;2022-10-22T11:51:41;17.77;;;2.20;;
51686;SDS011;37774;52.192;4.584;2022-10-22T11:56:51;18.05;;;2.58;;
51686;SDS011;37774;52.192;4.584;2022-10-22T11:59:36;10.90;;;2.00;;
51686;SDS011;37774;52.192;4.584;2022-10-22T12:02:19;21.98;;;1.90;;
51686;SDS011;37774;52.192;4.584;2022-10-22T12:04:48;17.02;;;2.65;;
51686;SDS011;37774;52.192;4.584;2022-10-22T12:07:29;18.45;;;3.05;;
51686;SDS011;37774;52.192;4.584;2022-10-22T12:09:59;12.88;;;2.03;;
51686;SDS011;37774;52.192;4.584;2022-10-22T12:12:33;12.57;;;1.42;;
51686;SDS011;37774;52.192;4.584;2022-10-22T12:15:01;12.25;;;1.63;;
51686;SDS011;37774;52.192;4.584;2022-10-22T12:17:30;18.45;;;2.35;;
51686;SDS011;37774;52.192;4.584;2022-10-22T12:19:59;22.67;;;3.13;;
51686;SDS011;37774;52.192;4.584;2022-10-22T12:22:27;16.88;;;1.90;;
51686;SDS011;37774;52.192;4.584;2022-10-22T12:24:58;16.55;;;2.38;;
51686;SDS011;37774;52.192;4.584;2022-10-22T12:27:27;20.55;;;2.25;;
51686;SDS011;37774;52.192;4.584;2022-10-22T12:29:55;8.25;;;1.83;;
51686;SDS011;37774;52.192;4.584;2022-10-22T12:32:23;9.85;;;2.03;;
51686;SDS011;37774;52.192;4.584;2022-10-22T12:34:51;11.57;;;1.83;;
51686;SDS011;37774;52.192;4.584;2022-10-22T12:37:18;15.93;;;2.17;;
51686;SDS011;37774;52.192;4.584;2022-10-22T12:39:45;12.30;;;1.58;;
51686;SDS011;37774;52.192;4.584;2022-10-22T12:42:12;13.32;;;1.60;;
51686;SDS011;37774;52.192;4.584;2022-10-22T12:44:39;13.80;;;2.05;;
51686;SDS011;37774;52.192;4.584;2022-10-22T12:47:10;16.83;;;2.25;;
51686;SDS011;37774;52.192;4.584;2022-10-22T12:49:40;8.60;;;2.30;;
51686;SDS011;37774;52.192;4.584;2022-10-22T12:52:12;20.83;;;2.85;;
51686;SDS011;37774;52.192;4.584;2022-10-22T12:54:40;6.95;;;1.45;;
51686;SDS011;37774;52.192;4.584;2022-10-22T12:57:08;5.55;;;1.85;;
51686;SDS011;37774;52.192;4.584;2022-10-22T12:59:36;16.05;;;1.80;;
51686;SDS011;37774;52.192;4.584;2022-10-22T13:02:10;11.50;;;1.52;;
51686;SDS011;37774;52.192;4.584;2022-10-22T13:07:37;6.22;;;1.70;;
51686;SDS011;37774;52.192;4.584;2022-10-22T13:10:13;15.88;;;1.80;;
51686;SDS011;37774;52.192;4.584;2022-10-22T13:12:42;8.32;;;1.58;;
51686;SDS011;37774;52.192;4.584;2022-10-22T13:15:30;16.65;;;1.88;;
51686;SDS011;37774;52.192;4.584;2022-10-22T13:18:00;10.98;;;2.15;;
51686;SDS011;37774;52.192;4.584;2022-10-22T13:20:27;4.20;;;0.98;;
51686;SDS011;37774;52.192;4.584;2022-10-22T13:22:56;8.57;;;1.45;;
51686;SDS011;37774;52.192;4.584;2022-10-22T13:25:25;9.25;;;2.00;;
51686;SDS011;37774;52.192;4.584;2022-10-22T13:27:53;8.50;;;1.75;;
51686;SDS011;37774;52.192;4.584;2022-10-22T13:30:21;15.65;;;2.17;;
51686;SDS011;37774;52.192;4.584;2022-10-22T13:32:48;10.80;;;1.35;;
51686;SDS011;37774;52.192;4.584;2022-10-22T13:35:15;18.05;;;2.10;;
51686;SDS011;37774;52.192;4.584;2022-10-22T13:37:44;15.35;;;1.90;;
51686;SDS011;37774;52.192;4.584;2022-10-22T13:40:12;9.10;;;1.65;;
51686;SDS011;37774;52.192;4.584;2022-10-22T13:42:44;12.63;;;1.15;;
51686;SDS011;37774;52.192;4.584;2022-10-22T13:45:11;16.52;;;1.52;;
51686;SDS011;37774;52.192;4.584;2022-10-22T13:47:38;15.52;;;1.98;;
51686;SDS011;37774;52.192;4.584;2022-10-22T13:50:09;11.95;;;1.65;;
51686;SDS011;37774;52.192;4.584;2022-10-22T13:52:38;16.50;;;1.92;;
51686;SDS011;37774;52.192;4.584;2022-10-22T13:55:12;9.25;;;1.38;;
51686;SDS011;37774;52.192;4.584;2022-10-22T13:57:39;13.85;;;1.55;;
51686;SDS011;37774;52.192;4.584;2022-10-22T14:00:08;17.40;;;1.88;;
51686;SDS011;37774;52.192;4.584;2022-10-22T14:02:35;11.13;;;1.60;;
51686;SDS011;37774;52.192;4.584;2022-10-22T14:05:02;17.63;;;1.77;;
51686;SDS011;37774;52.192;4.584;2022-10-22T14:07:30;13.35;;;1.88;;
51686;SDS011;37774;52.192;4.584;2022-10-22T14:09:57;20.60;;;1.45;;
51686;SDS011;37774;52.192;4.584;2022-10-22T14:12:25;8.88;;;1.52;;
51686;SDS011;37774;52.192;4.584;2022-10-22T14:14:53;7.55;;;1.42;;
51686;SDS011;37774;52.192;4.584;2022-10-22T14:17:20;15.18;;;1.52;;
51686;SDS011;37774;52.192;4.584;2022-10-22T14:19:46;16.27;;;1.92;;
51686;SDS011;37774;52.192;4.584;2022-10-22T14:22:14;9.25;;;1.88;;
51686;SDS011;37774;52.192;4.584;2022-10-22T14:24:41;12.35;;;1.45;;
51686;SDS011;37774;52.192;4.584;2022-10-22T14:27:09;19.05;;;2.28;;
51686;SDS011;37774;52.192;4.584;2022-10-22T14:29:38;7.35;;;2.00;;
51686;SDS011;37774;52.192;4.584;2022-10-22T14:32:05;22.00;;;2.40;;
51686;SDS011;37774;52.192;4.584;2022-10-22T14:34:32;23.27;;;1.50;;
51686;SDS011;37774;52.192;4.584;2022-10-22T14:36:59;15.05;;;1.80;;
51686;SDS011;37774;52.192;4.584;2022-10-22T14:39:26;15.30;;;1.83;;
51686;SDS011;37774;52.192;4.584;2022-10-22T14:41:52;7.32;;;1.35;;
51686;SDS011;37774;52.192;4.584;2022-10-22T14:44:19;11.23;;;2.38;;
51686;SDS011;37774;52.192;4.584;2022-10-22T14:46:47;8.57;;;1.40;;
51686;SDS011;37774;52.192;4.584;2022-10-22T14:49:14;6.50;;;1.05;;
51686;SDS011;37774;52.192;4.584;2022-10-22T14:51:41;13.45;;;1.63;;
51686;SDS011;37774;52.192;4.584;2022-10-22T14:54:07;15.55;;;1.90;;
51686;SDS011;37774;52.192;4.584;2022-10-22T14:56:35;10.75;;;1.95;;
51686;SDS011;37774;52.192;4.584;2022-10-22T14:59:02;17.48;;;1.80;;